Sail On Sailor — VMAW — position and weather

sailwx.info

Track history (hours):
 
Tides and Currents Weather Stations Pressure Air Temp Water Temp Dewpoint Dewpoint Depression Visibility Wind Speed Wind Dir Waves Ship Positions

Sail On Sailor

Last reported at 2018-May-27 23:20 UTC. Time now 2018-Jun-22 01:57 UTC.
Position S 27°02' E 153°15'.
Warning: this ship's position is 25 days out of date.

Length 18 m.

Type: Sailing vessel. MMSI: 503061230.

Date/timePositionNaut miles runAvg speedWind from/ knotsBaromVisibWave heightAir tempDewpointWater temp
2018-May-27 23:20S 27°02' E 153°15'11 2.1
2018-May-27 18:11S 27°11' E 153°22'0 0.0
2018-May-27 17:50S 27°11' E 153°22'0 0.0
2018-May-27 17:26S 27°11' E 153°22'1 0.1
2018-May-27 09:33S 27°12' E 153°21'1 6.8
2018-May-27 09:28S 27°12' E 153°21'4 7.7
2018-May-27 08:58S 27°16' E 153°19'4 8.2
2018-May-27 08:30S 27°19' E 153°19'17 7.1
2018-May-27 06:09S 27°36' E 153°24'2 8.5
2018-May-27 05:57S 27°37' E 153°24'3 6.4
2018-May-27 05:30S 27°39' E 153°21'5 9.1
2018-May-27 05:00S 27°44' E 153°21'4 7.4
2018-May-27 04:30S 27°47' E 153°23'3 5.6
2018-May-27 04:00S 27°49' E 153°24'3 6.7
2018-May-27 03:30S 27°53' E 153°23'3 5.1
2018-May-27 02:59S 27°52' E 153°20'0 0.2
2018-May-27 02:27S 27°52' E 153°20'0 0.0
2018-May-27 01:54S 27°52' E 153°20'0 0.0
2018-May-27 01:24S 27°52' E 153°20'0 0.0
2018-May-27 01:00S 27°52' E 153°20'0 0.0
2018-May-27 00:27S 27°52' E 153°20'0 0.0
2018-May-27 00:00S 27°52' E 153°20'0 0.0
2018-May-26 23:30S 27°52' E 153°20'0 0.0
2018-May-26 23:00S 27°52' E 153°20'0 0.0
2018-May-26 22:27S 27°52' E 153°20'0 0.0
2018-May-26 22:00S 27°52' E 153°20'0 0.0
2018-May-26 21:30S 27°52' E 153°20'0 0.0
2018-May-26 20:57S 27°52' E 153°20'0 0.0
2018-May-26 20:24S 27°52' E 153°20'0 0.0
2018-May-26 20:00S 27°52' E 153°20'0 0.0
2018-May-26 19:27S 27°52' E 153°20'0 0.0
2018-May-26 19:00S 27°52' E 153°20'0 0.0
2018-May-26 18:24S 27°52' E 153°20'0 0.0
2018-May-26 17:54S 27°52' E 153°20'0 0.0
2018-May-26 17:24S 27°52' E 153°20'0 0.0
2018-May-26 17:00S 27°52' E 153°20'0 0.0
2018-May-26 16:27S 27°52' E 153°20'0 0.0
2018-May-26 15:54S 27°52' E 153°20'0 0.0
2018-May-26 15:27S 27°52' E 153°20'0 0.0
2018-May-26 14:18S 27°52' E 153°20'0 0.0
2018-May-26 13:48S 27°52' E 153°20'0 0.0
2018-May-26 13:30S 27°52' E 153°20'0 0.0
2018-May-26 13:00S 27°52' E 153°20'0 0.0
2018-May-26 12:30S 27°52' E 153°20'0 0.0
2018-May-26 11:57S 27°52' E 153°20'0 0.0
2018-May-26 11:30S 27°52' E 153°20'0 0.0
2018-May-26 11:00S 27°52' E 153°20'0 0.0
2018-May-26 10:30S 27°52' E 153°20'0 0.0
2018-May-26 09:45S 27°52' E 153°20'0 0.0
2018-May-26 09:30S 27°52' E 153°20'0 0.0
2018-May-26 09:00S 27°52' E 153°20'0 0.0
2018-May-26 08:30S 27°52' E 153°20'0 0.0
2018-May-26 07:48S 27°52' E 153°20'0 0.0
2018-May-26 07:30S 27°52' E 153°20'0 0.0
2018-May-25 01:59S 27°52' E 153°20'0 0.0
2018-May-25 01:17S 27°52' E 153°20'0 0.0
2018-May-25 00:59S 27°52' E 153°20'0 0.0
2018-May-25 00:29S 27°52' E 153°20'0 0.0
2018-May-24 23:56S 27°52' E 153°20'0 0.0
2018-May-24 23:29S 27°52' E 153°20'0 0.0
2018-May-24 22:56S 27°52' E 153°20'0 0.0
2018-May-24 22:29S 27°52' E 153°20'0 0.0
2018-May-24 21:53S 27°52' E 153°20'0 0.0
2018-May-24 21:26S 27°52' E 153°20'0 0.0
2018-May-24 20:59S 27°52' E 153°20'0 0.0
2018-May-24 20:26S 27°52' E 153°20'0 0.0
2018-May-24 19:59S 27°52' E 153°20'0 0.0
2018-May-24 19:29S 27°52' E 153°20'0 0.0
2018-May-24 18:59S 27°52' E 153°20'0 0.0
2018-May-24 18:23S 27°52' E 153°20'0 0.0
2018-May-24 17:56S 27°52' E 153°20'0 0.0
2018-May-24 17:29S 27°52' E 153°20'0 0.0
2018-May-24 16:53S 27°52' E 153°20'0 0.0
2018-May-24 16:29S 27°52' E 153°20'0 0.0
2018-May-24 15:59S 27°52' E 153°20'0 0.0
2018-May-24 15:26S 27°52' E 153°20'0 0.0
2018-May-24 14:59S 27°52' E 153°20'0 0.0
2018-May-24 14:29S 27°52' E 153°20'0 0.0
2018-May-24 13:59S 27°52' E 153°20'0 0.0
2018-May-24 13:20S 27°52' E 153°20'0 0.0
2018-May-24 08:59S 27°52' E 153°20'0 0.0
2018-May-24 08:23S 27°52' E 153°20'0 0.0
2018-May-24 07:59S 27°52' E 153°20'0 0.0
2018-May-24 07:29S 27°52' E 153°20'0 0.0
2018-May-24 06:53S 27°52' E 153°20'0 0.0
2018-May-24 06:29S 27°52' E 153°20'0 0.0
2018-May-24 05:50S 27°52' E 153°20'0 0.0
2018-May-24 05:26S 27°52' E 153°20'0 0.0
2018-May-24 04:53S 27°52' E 153°20'0 0.0
2018-May-24 04:17S 27°52' E 153°20'0 0.0
2018-May-24 03:58S 27°52' E 153°20'0 0.1
2018-May-24 03:27S 27°52' E 153°20'2 4.9
2018-May-24 03:00S 27°51' E 153°23'6 0.5
2018-May-23 14:17S 27°45' E 153°21'  
Track history (hours):
 
Tides and Currents Weather Stations Pressure Air Temp Water Temp Dewpoint Dewpoint Depression Visibility Wind Speed Wind Dir Waves Ship Positions

Sail On Sailor

Last reported at 2018-May-27 23:20 UTC. Time now 2018-Jun-22 01:57 UTC.
Position S 27°02' E 153°15'.
Warning: this ship's position is 25 days out of date.

Length 18 m.

Type: Sailing vessel. MMSI: 503061230.

Date/timePositionNaut miles runAvg speedWind from/ knotsBaromVisibWave heightAir tempDewpointWater temp
2018-May-27 23:20S 27°02' E 153°15'11 2.1
2018-May-27 18:11S 27°11' E 153°22'0 0.0
2018-May-27 17:50S 27°11' E 153°22'0 0.0
2018-May-27 17:26S 27°11' E 153°22'1 0.1
2018-May-27 09:33S 27°12' E 153°21'1 6.8
2018-May-27 09:28S 27°12' E 153°21'4 7.7
2018-May-27 08:58S 27°16' E 153°19'4 8.2
2018-May-27 08:30S 27°19' E 153°19'17 7.1
2018-May-27 06:09S 27°36' E 153°24'2 8.5
2018-May-27 05:57S 27°37' E 153°24'3 6.4
2018-May-27 05:30S 27°39' E 153°21'5 9.1
2018-May-27 05:00S 27°44' E 153°21'4 7.4
2018-May-27 04:30S 27°47' E 153°23'3 5.6
2018-May-27 04:00S 27°49' E 153°24'3 6.7
2018-May-27 03:30S 27°53' E 153°23'3 5.1
2018-May-27 02:59S 27°52' E 153°20'0 0.2
2018-May-27 02:27S 27°52' E 153°20'0 0.0
2018-May-27 01:54S 27°52' E 153°20'0 0.0
2018-May-27 01:24S 27°52' E 153°20'0 0.0
2018-May-27 01:00S 27°52' E 153°20'0 0.0
2018-May-27 00:27S 27°52' E 153°20'0 0.0
2018-May-27 00:00S 27°52' E 153°20'0 0.0
2018-May-26 23:30S 27°52' E 153°20'0 0.0
2018-May-26 23:00S 27°52' E 153°20'0 0.0
2018-May-26 22:27S 27°52' E 153°20'0 0.0
2018-May-26 22:00S 27°52' E 153°20'0 0.0
2018-May-26 21:30S 27°52' E 153°20'0 0.0
2018-May-26 20:57S 27°52' E 153°20'0 0.0
2018-May-26 20:24S 27°52' E 153°20'0 0.0
2018-May-26 20:00S 27°52' E 153°20'0 0.0
2018-May-26 19:27S 27°52' E 153°20'0 0.0
2018-May-26 19:00S 27°52' E 153°20'0 0.0
2018-May-26 18:24S 27°52' E 153°20'0 0.0
2018-May-26 17:54S 27°52' E 153°20'0 0.0
2018-May-26 17:24S 27°52' E 153°20'0 0.0
2018-May-26 17:00S 27°52' E 153°20'0 0.0
2018-May-26 16:27S 27°52' E 153°20'0 0.0
2018-May-26 15:54S 27°52' E 153°20'0 0.0
2018-May-26 15:27S 27°52' E 153°20'0 0.0
2018-May-26 14:18S 27°52' E 153°20'0 0.0
2018-May-26 13:48S 27°52' E 153°20'0 0.0
2018-May-26 13:30S 27°52' E 153°20'0 0.0
2018-May-26 13:00S 27°52' E 153°20'0 0.0
2018-May-26 12:30S 27°52' E 153°20'0 0.0
2018-May-26 11:57S 27°52' E 153°20'0 0.0
2018-May-26 11:30S 27°52' E 153°20'0 0.0
2018-May-26 11:00S 27°52' E 153°20'0 0.0
2018-May-26 10:30S 27°52' E 153°20'0 0.0
2018-May-26 09:45S 27°52' E 153°20'0 0.0
2018-May-26 09:30S 27°52' E 153°20'0 0.0
2018-May-26 09:00S 27°52' E 153°20'0 0.0
2018-May-26 08:30S 27°52' E 153°20'0 0.0
2018-May-26 07:48S 27°52' E 153°20'0 0.0
2018-May-26 07:30S 27°52' E 153°20'0 0.0
2018-May-25 01:59S 27°52' E 153°20'0 0.0
2018-May-25 01:17S 27°52' E 153°20'0 0.0
2018-May-25 00:59S 27°52' E 153°20'0 0.0
2018-May-25 00:29S 27°52' E 153°20'0 0.0
2018-May-24 23:56S 27°52' E 153°20'0 0.0
2018-May-24 23:29S 27°52' E 153°20'0 0.0
2018-May-24 22:56S 27°52' E 153°20'0 0.0
2018-May-24 22:29S 27°52' E 153°20'0 0.0
2018-May-24 21:53S 27°52' E 153°20'0 0.0
2018-May-24 21:26S 27°52' E 153°20'0 0.0
2018-May-24 20:59S 27°52' E 153°20'0 0.0
2018-May-24 20:26S 27°52' E 153°20'0 0.0
2018-May-24 19:59S 27°52' E 153°20'0 0.0
2018-May-24 19:29S 27°52' E 153°20'0 0.0
2018-May-24 18:59S 27°52' E 153°20'0 0.0
2018-May-24 18:23S 27°52' E 153°20'0 0.0
2018-May-24 17:56S 27°52' E 153°20'0 0.0
2018-May-24 17:29S 27°52' E 153°20'0 0.0
2018-May-24 16:53S 27°52' E 153°20'0 0.0
2018-May-24 16:29S 27°52' E 153°20'0 0.0
2018-May-24 15:59S 27°52' E 153°20'0 0.0
2018-May-24 15:26S 27°52' E 153°20'0 0.0
2018-May-24 14:59S 27°52' E 153°20'0 0.0
2018-May-24 14:29S 27°52' E 153°20'0 0.0
2018-May-24 13:59S 27°52' E 153°20'0 0.0
2018-May-24 13:20S 27°52' E 153°20'0 0.0
2018-May-24 08:59S 27°52' E 153°20'0 0.0
2018-May-24 08:23S 27°52' E 153°20'0 0.0
2018-May-24 07:59S 27°52' E 153°20'0 0.0
2018-May-24 07:29S 27°52' E 153°20'0 0.0
2018-May-24 06:53S 27°52' E 153°20'0 0.0
2018-May-24 06:29S 27°52' E 153°20'0 0.0
2018-May-24 05:50S 27°52' E 153°20'0 0.0
2018-May-24 05:26S 27°52' E 153°20'0 0.0
2018-May-24 04:53S 27°52' E 153°20'0 0.0
2018-May-24 04:17S 27°52' E 153°20'0 0.0
2018-May-24 03:58S 27°52' E 153°20'0 0.1
2018-May-24 03:27S 27°52' E 153°20'2 4.9
2018-May-24 03:00S 27°51' E 153°23'6 0.5
2018-May-23 14:17S 27°45' E 153°21'  

Dump ship's entire track history